sensor_id;sensor_type;location;lat;lon;timestamp;P1;durP1;ratioP1;P2;durP2;ratioP2
52724;SDS011;38621;52.830;6.914;2023-09-07T00:00:35;3.55;;;2.83;;
52724;SDS011;38621;52.830;6.914;2023-09-07T00:03:01;4.22;;;2.70;;
52724;SDS011;38621;52.830;6.914;2023-09-07T00:05:27;4.53;;;2.85;;
52724;SDS011;38621;52.830;6.914;2023-09-07T00:07:52;3.58;;;2.47;;
52724;SDS011;38621;52.830;6.914;2023-09-07T00:10:18;4.25;;;2.40;;
52724;SDS011;38621;52.830;6.914;2023-09-07T00:12:44;3.22;;;2.58;;
52724;SDS011;38621;52.830;6.914;2023-09-07T00:15:11;5.05;;;2.97;;
52724;SDS011;38621;52.830;6.914;2023-09-07T00:17:36;4.68;;;2.88;;
52724;SDS011;38621;52.830;6.914;2023-09-07T00:20:03;3.40;;;2.65;;
52724;SDS011;38621;52.830;6.914;2023-09-07T00:22:36;3.20;;;2.40;;
52724;SDS011;38621;52.830;6.914;2023-09-07T00:25:02;4.18;;;2.88;;
52724;SDS011;38621;52.830;6.914;2023-09-07T00:27:29;3.47;;;2.60;;
52724;SDS011;38621;52.830;6.914;2023-09-07T00:29:55;3.47;;;2.67;;
52724;SDS011;38621;52.830;6.914;2023-09-07T00:32:21;3.72;;;2.30;;
52724;SDS011;38621;52.830;6.914;2023-09-07T00:34:46;5.30;;;2.45;;
52724;SDS011;38621;52.830;6.914;2023-09-07T00:37:12;2.80;;;2.30;;
52724;SDS011;38621;52.830;6.914;2023-09-07T00:39:38;4.00;;;2.60;;
52724;SDS011;38621;52.830;6.914;2023-09-07T00:42:03;2.97;;;2.40;;
52724;SDS011;38621;52.830;6.914;2023-09-07T00:44:29;3.22;;;2.08;;
52724;SDS011;38621;52.830;6.914;2023-09-07T00:46:56;3.05;;;2.22;;
52724;SDS011;38621;52.830;6.914;2023-09-07T00:49:22;3.78;;;2.63;;
52724;SDS011;38621;52.830;6.914;2023-09-07T00:51:48;3.25;;;2.58;;
52724;SDS011;38621;52.830;6.914;2023-09-07T00:54:14;4.57;;;2.60;;
52724;SDS011;38621;52.830;6.914;2023-09-07T00:56:39;3.70;;;2.42;;
52724;SDS011;38621;52.830;6.914;2023-09-07T00:59:07;3.13;;;2.50;;
52724;SDS011;38621;52.830;6.914;2023-09-07T01:01:33;4.00;;;2.50;;
52724;SDS011;38621;52.830;6.914;2023-09-07T01:04:00;3.20;;;2.28;;
52724;SDS011;38621;52.830;6.914;2023-09-07T01:06:29;3.67;;;2.40;;
52724;SDS011;38621;52.830;6.914;2023-09-07T01:08:58;3.53;;;2.50;;
52724;SDS011;38621;52.830;6.914;2023-09-07T01:11:35;3.75;;;2.58;;
52724;SDS011;38621;52.830;6.914;2023-09-07T01:14:02;4.75;;;2.80;;
52724;SDS011;38621;52.830;6.914;2023-09-07T01:16:29;3.67;;;2.55;;
52724;SDS011;38621;52.830;6.914;2023-09-07T01:18:56;4.38;;;2.90;;
52724;SDS011;38621;52.830;6.914;2023-09-07T01:21:22;3.75;;;2.70;;
52724;SDS011;38621;52.830;6.914;2023-09-07T01:23:48;4.47;;;2.95;;
52724;SDS011;38621;52.830;6.914;2023-09-07T01:26:15;4.25;;;3.08;;
52724;SDS011;38621;52.830;6.914;2023-09-07T01:28:40;5.75;;;3.55;;
52724;SDS011;38621;52.830;6.914;2023-09-07T01:31:07;3.55;;;2.60;;
52724;SDS011;38621;52.830;6.914;2023-09-07T01:33:32;4.55;;;2.80;;
52724;SDS011;38621;52.830;6.914;2023-09-07T01:35:58;3.20;;;2.40;;
52724;SDS011;38621;52.830;6.914;2023-09-07T01:38:24;3.60;;;2.90;;
52724;SDS011;38621;52.830;6.914;2023-09-07T01:40:50;6.45;;;3.35;;
52724;SDS011;38621;52.830;6.914;2023-09-07T01:43:15;4.90;;;2.85;;
52724;SDS011;38621;52.830;6.914;2023-09-07T01:45:41;4.00;;;3.03;;
52724;SDS011;38621;52.830;6.914;2023-09-07T01:48:08;4.85;;;3.38;;
52724;SDS011;38621;52.830;6.914;2023-09-07T01:50:36;5.68;;;3.95;;
52724;SDS011;38621;52.830;6.914;2023-09-07T01:53:01;5.50;;;3.85;;
52724;SDS011;38621;52.830;6.914;2023-09-07T01:55:29;5.22;;;3.95;;
52724;SDS011;38621;52.830;6.914;2023-09-07T01:57:55;4.97;;;3.90;;
52724;SDS011;38621;52.830;6.914;2023-09-07T02:00:21;6.25;;;4.38;;
52724;SDS011;38621;52.830;6.914;2023-09-07T02:02:47;5.18;;;3.90;;
52724;SDS011;38621;52.830;6.914;2023-09-07T02:05:12;4.88;;;4.05;;
52724;SDS011;38621;52.830;6.914;2023-09-07T02:07:38;6.13;;;4.00;;
52724;SDS011;38621;52.830;6.914;2023-09-07T02:10:04;4.65;;;3.85;;
52724;SDS011;38621;52.830;6.914;2023-09-07T02:12:31;5.88;;;4.30;;
52724;SDS011;38621;52.830;6.914;2023-09-07T02:14:57;8.88;;;4.45;;
52724;SDS011;38621;52.830;6.914;2023-09-07T02:17:28;6.60;;;4.55;;
52724;SDS011;38621;52.830;6.914;2023-09-07T02:19:55;5.28;;;3.85;;
52724;SDS011;38621;52.830;6.914;2023-09-07T02:22:21;5.70;;;4.45;;
52724;SDS011;38621;52.830;6.914;2023-09-07T02:24:47;5.05;;;4.47;;
52724;SDS011;38621;52.830;6.914;2023-09-07T02:27:12;5.40;;;4.45;;
52724;SDS011;38621;52.830;6.914;2023-09-07T02:29:38;5.32;;;4.22;;
52724;SDS011;38621;52.830;6.914;2023-09-07T02:32:04;7.00;;;4.72;;
52724;SDS011;38621;52.830;6.914;2023-09-07T02:34:30;5.40;;;4.32;;
52724;SDS011;38621;52.830;6.914;2023-09-07T02:36:56;5.78;;;4.25;;
52724;SDS011;38621;52.830;6.914;2023-09-07T02:39:22;5.20;;;4.25;;
52724;SDS011;38621;52.830;6.914;2023-09-07T02:41:51;6.57;;;4.15;;
52724;SDS011;38621;52.830;6.914;2023-09-07T02:44:17;6.85;;;4.53;;
52724;SDS011;38621;52.830;6.914;2023-09-07T02:46:43;5.65;;;4.57;;
52724;SDS011;38621;52.830;6.914;2023-09-07T02:49:09;5.10;;;4.18;;
52724;SDS011;38621;52.830;6.914;2023-09-07T02:51:34;5.40;;;4.40;;
52724;SDS011;38621;52.830;6.914;2023-09-07T02:54:01;5.53;;;4.10;;
52724;SDS011;38621;52.830;6.914;2023-09-07T02:56:28;5.47;;;4.05;;
52724;SDS011;38621;52.830;6.914;2023-09-07T02:58:54;4.60;;;3.92;;
52724;SDS011;38621;52.830;6.914;2023-09-07T03:01:19;6.43;;;4.40;;
52724;SDS011;38621;52.830;6.914;2023-09-07T03:03:46;4.95;;;4.22;;
52724;SDS011;38621;52.830;6.914;2023-09-07T03:06:12;4.53;;;3.83;;
52724;SDS011;38621;52.830;6.914;2023-09-07T03:08:39;5.18;;;3.85;;
52724;SDS011;38621;52.830;6.914;2023-09-07T03:11:05;5.97;;;4.00;;
52724;SDS011;38621;52.830;6.914;2023-09-07T03:13:32;5.80;;;4.18;;
52724;SDS011;38621;52.830;6.914;2023-09-07T03:15:58;5.25;;;4.25;;
52724;SDS011;38621;52.830;6.914;2023-09-07T03:18:24;4.90;;;3.72;;
52724;SDS011;38621;52.830;6.914;2023-09-07T03:20:50;4.72;;;3.45;;
52724;SDS011;38621;52.830;6.914;2023-09-07T03:23:18;5.05;;;3.80;;
52724;SDS011;38621;52.830;6.914;2023-09-07T03:25:44;4.68;;;3.80;;
52724;SDS011;38621;52.830;6.914;2023-09-07T03:28:09;7.28;;;3.88;;
52724;SDS011;38621;52.830;6.914;2023-09-07T03:30:35;5.20;;;3.75;;
52724;SDS011;38621;52.830;6.914;2023-09-07T03:33:01;5.28;;;4.25;;
52724;SDS011;38621;52.830;6.914;2023-09-07T03:35:28;4.45;;;3.47;;
52724;SDS011;38621;52.830;6.914;2023-09-07T03:37:54;5.32;;;4.07;;
52724;SDS011;38621;52.830;6.914;2023-09-07T03:40:20;5.13;;;3.90;;
52724;SDS011;38621;52.830;6.914;2023-09-07T03:42:45;5.38;;;3.92;;
52724;SDS011;38621;52.830;6.914;2023-09-07T03:45:11;8.50;;;4.03;;
52724;SDS011;38621;52.830;6.914;2023-09-07T03:47:37;5.13;;;3.78;;
52724;SDS011;38621;52.830;6.914;2023-09-07T03:50:04;5.47;;;3.88;;
52724;SDS011;38621;52.830;6.914;2023-09-07T03:52:30;5.90;;;4.15;;
52724;SDS011;38621;52.830;6.914;2023-09-07T03:54:56;4.80;;;4.05;;
52724;SDS011;38621;52.830;6.914;2023-09-07T03:57:22;5.47;;;4.10;;
52724;SDS011;38621;52.830;6.914;2023-09-07T03:59:48;5.18;;;4.15;;
52724;SDS011;38621;52.830;6.914;2023-09-07T04:02:14;6.63;;;4.45;;
52724;SDS011;38621;52.830;6.914;2023-09-07T04:04:42;5.32;;;4.28;;
52724;SDS011;38621;52.830;6.914;2023-09-07T04:07:07;5.72;;;4.05;;
52724;SDS011;38621;52.830;6.914;2023-09-07T04:09:33;6.03;;;4.45;;
52724;SDS011;38621;52.830;6.914;2023-09-07T04:12:00;4.70;;;4.20;;
52724;SDS011;38621;52.830;6.914;2023-09-07T04:14:26;5.13;;;4.03;;
52724;SDS011;38621;52.830;6.914;2023-09-07T04:16:53;6.57;;;4.15;;
52724;SDS011;38621;52.830;6.914;2023-09-07T04:19:19;4.32;;;3.75;;
52724;SDS011;38621;52.830;6.914;2023-09-07T04:21:44;5.85;;;4.20;;
52724;SDS011;38621;52.830;6.914;2023-09-07T04:24:10;4.85;;;4.03;;
52724;SDS011;38621;52.830;6.914;2023-09-07T04:26:37;6.55;;;4.30;;
52724;SDS011;38621;52.830;6.914;2023-09-07T04:29:03;5.88;;;4.47;;
52724;SDS011;38621;52.830;6.914;2023-09-07T04:31:28;5.53;;;4.40;;
52724;SDS011;38621;52.830;6.914;2023-09-07T04:33:54;7.13;;;4.85;;
52724;SDS011;38621;52.830;6.914;2023-09-07T04:36:20;4.85;;;4.22;;
52724;SDS011;38621;52.830;6.914;2023-09-07T04:38:46;5.53;;;4.68;;
52724;SDS011;38621;52.830;6.914;2023-09-07T04:41:12;6.97;;;4.88;;
52724;SDS011;38621;52.830;6.914;2023-09-07T04:43:39;5.97;;;4.55;;
52724;SDS011;38621;52.830;6.914;2023-09-07T04:46:08;5.35;;;4.43;;
52724;SDS011;38621;52.830;6.914;2023-09-07T04:48:34;6.15;;;5.00;;
52724;SDS011;38621;52.830;6.914;2023-09-07T04:51:01;5.07;;;4.57;;
52724;SDS011;38621;52.830;6.914;2023-09-07T04:53:28;6.57;;;4.80;;
52724;SDS011;38621;52.830;6.914;2023-09-07T04:55:56;6.95;;;4.85;;
52724;SDS011;38621;52.830;6.914;2023-09-07T04:58:22;5.57;;;4.15;;
52724;SDS011;38621;52.830;6.914;2023-09-07T05:00:48;7.53;;;5.15;;
52724;SDS011;38621;52.830;6.914;2023-09-07T05:03:13;5.45;;;4.55;;
52724;SDS011;38621;52.830;6.914;2023-09-07T05:05:40;5.72;;;4.55;;
52724;SDS011;38621;52.830;6.914;2023-09-07T05:08:07;5.13;;;4.20;;
52724;SDS011;38621;52.830;6.914;2023-09-07T05:10:33;5.25;;;4.20;;
52724;SDS011;38621;52.830;6.914;2023-09-07T05:12:59;5.25;;;4.18;;
52724;SDS011;38621;52.830;6.914;2023-09-07T05:15:24;5.53;;;4.43;;
52724;SDS011;38621;52.830;6.914;2023-09-07T05:17:51;6.25;;;4.72;;
52724;SDS011;38621;52.830;6.914;2023-09-07T05:20:17;6.20;;;4.18;;
52724;SDS011;38621;52.830;6.914;2023-09-07T05:22:43;5.18;;;4.50;;
52724;SDS011;38621;52.830;6.914;2023-09-07T05:25:09;6.35;;;4.50;;
52724;SDS011;38621;52.830;6.914;2023-09-07T05:27:35;6.55;;;4.75;;
52724;SDS011;38621;52.830;6.914;2023-09-07T05:30:02;4.85;;;4.15;;
52724;SDS011;38621;52.830;6.914;2023-09-07T05:32:28;6.88;;;4.28;;
52724;SDS011;38621;52.830;6.914;2023-09-07T05:34:54;7.35;;;4.28;;
52724;SDS011;38621;52.830;6.914;2023-09-07T05:37:19;6.53;;;4.07;;
52724;SDS011;38621;52.830;6.914;2023-09-07T05:39:45;6.00;;;4.85;;
52724;SDS011;38621;52.830;6.914;2023-09-07T05:42:11;6.57;;;4.68;;
52724;SDS011;38621;52.830;6.914;2023-09-07T05:44:37;4.90;;;4.07;;
52724;SDS011;38621;52.830;6.914;2023-09-07T05:47:04;5.63;;;4.90;;
52724;SDS011;38621;52.830;6.914;2023-09-07T05:49:30;6.00;;;4.13;;
52724;SDS011;38621;52.830;6.914;2023-09-07T05:51:55;6.40;;;4.22;;
52724;SDS011;38621;52.830;6.914;2023-09-07T05:54:21;5.68;;;4.32;;
52724;SDS011;38621;52.830;6.914;2023-09-07T05:56:47;5.03;;;4.22;;
52724;SDS011;38621;52.830;6.914;2023-09-07T05:59:13;4.82;;;4.30;;
52724;SDS011;38621;52.830;6.914;2023-09-07T06:01:39;6.68;;;4.45;;
52724;SDS011;38621;52.830;6.914;2023-09-07T06:04:05;5.72;;;4.57;;
52724;SDS011;38621;52.830;6.914;2023-09-07T06:06:32;5.68;;;4.43;;
52724;SDS011;38621;52.830;6.914;2023-09-07T06:08:57;6.25;;;4.63;;
52724;SDS011;38621;52.830;6.914;2023-09-07T06:11:24;6.55;;;4.93;;
52724;SDS011;38621;52.830;6.914;2023-09-07T06:13:50;6.63;;;4.43;;
52724;SDS011;38621;52.830;6.914;2023-09-07T06:16:16;8.05;;;4.82;;
52724;SDS011;38621;52.830;6.914;2023-09-07T06:18:41;6.38;;;4.82;;
52724;SDS011;38621;52.830;6.914;2023-09-07T06:21:07;6.47;;;4.80;;
52724;SDS011;38621;52.830;6.914;2023-09-07T06:23:33;6.43;;;5.13;;
52724;SDS011;38621;52.830;6.914;2023-09-07T06:25:59;7.90;;;4.93;;
52724;SDS011;38621;52.830;6.914;2023-09-07T06:28:26;7.32;;;4.78;;
52724;SDS011;38621;52.830;6.914;2023-09-07T06:30:51;6.10;;;5.03;;
52724;SDS011;38621;52.830;6.914;2023-09-07T06:33:17;7.18;;;5.15;;
52724;SDS011;38621;52.830;6.914;2023-09-07T06:35:43;8.40;;;5.43;;
52724;SDS011;38621;52.830;6.914;2023-09-07T06:38:09;6.93;;;5.47;;
52724;SDS011;38621;52.830;6.914;2023-09-07T06:40:34;6.82;;;4.90;;
52724;SDS011;38621;52.830;6.914;2023-09-07T06:43:00;6.90;;;5.43;;
52724;SDS011;38621;52.830;6.914;2023-09-07T06:45:30;7.80;;;5.07;;
52724;SDS011;38621;52.830;6.914;2023-09-07T06:48:00;6.68;;;4.78;;
52724;SDS011;38621;52.830;6.914;2023-09-07T06:50:26;7.72;;;5.40;;
52724;SDS011;38621;52.830;6.914;2023-09-07T06:52:51;7.40;;;5.10;;
52724;SDS011;38621;52.830;6.914;2023-09-07T06:55:17;9.57;;;6.53;;
52724;SDS011;38621;52.830;6.914;2023-09-07T06:57:43;6.38;;;5.13;;
52724;SDS011;38621;52.830;6.914;2023-09-07T07:00:09;7.47;;;5.32;;
52724;SDS011;38621;52.830;6.914;2023-09-07T07:02:35;6.93;;;5.57;;
52724;SDS011;38621;52.830;6.914;2023-09-07T07:05:01;7.13;;;5.40;;
52724;SDS011;38621;52.830;6.914;2023-09-07T07:07:28;7.20;;;5.65;;
52724;SDS011;38621;52.830;6.914;2023-09-07T07:09:54;6.72;;;5.28;;
52724;SDS011;38621;52.830;6.914;2023-09-07T07:12:20;6.65;;;5.40;;
52724;SDS011;38621;52.830;6.914;2023-09-07T07:14:46;6.18;;;5.32;;
52724;SDS011;38621;52.830;6.914;2023-09-07T07:17:11;6.22;;;5.28;;
52724;SDS011;38621;52.830;6.914;2023-09-07T07:19:37;5.85;;;5.03;;
52724;SDS011;38621;52.830;6.914;2023-09-07T07:22:03;7.32;;;5.88;;
52724;SDS011;38621;52.830;6.914;2023-09-07T07:24:29;7.53;;;5.45;;
52724;SDS011;38621;52.830;6.914;2023-09-07T07:26:54;6.22;;;5.30;;
52724;SDS011;38621;52.830;6.914;2023-09-07T07:29:20;6.38;;;5.25;;
52724;SDS011;38621;52.830;6.914;2023-09-07T07:31:46;7.82;;;5.80;;
52724;SDS011;38621;52.830;6.914;2023-09-07T07:34:12;8.95;;;6.30;;
52724;SDS011;38621;52.830;6.914;2023-09-07T07:36:38;6.75;;;5.18;;
52724;SDS011;38621;52.830;6.914;2023-09-07T07:39:07;6.90;;;5.60;;
52724;SDS011;38621;52.830;6.914;2023-09-07T07:41:32;6.82;;;5.30;;
52724;SDS011;38621;52.830;6.914;2023-09-07T07:43:58;6.18;;;4.78;;
52724;SDS011;38621;52.830;6.914;2023-09-07T07:46:24;7.68;;;5.03;;
52724;SDS011;38621;52.830;6.914;2023-09-07T07:48:50;6.80;;;5.03;;
52724;SDS011;38621;52.830;6.914;2023-09-07T07:51:15;6.65;;;4.85;;
52724;SDS011;38621;52.830;6.914;2023-09-07T07:53:41;5.82;;;4.88;;
52724;SDS011;38621;52.830;6.914;2023-09-07T07:56:16;7.10;;;4.95;;
52724;SDS011;38621;52.830;6.914;2023-09-07T07:58:42;6.63;;;5.53;;
52724;SDS011;38621;52.830;6.914;2023-09-07T08:01:13;5.90;;;4.75;;
52724;SDS011;38621;52.830;6.914;2023-09-07T08:03:40;6.53;;;4.95;;
52724;SDS011;38621;52.830;6.914;2023-09-07T08:06:06;6.00;;;4.60;;
52724;SDS011;38621;52.830;6.914;2023-09-07T08:08:31;5.93;;;4.50;;
52724;SDS011;38621;52.830;6.914;2023-09-07T08:10:57;5.90;;;4.30;;
52724;SDS011;38621;52.830;6.914;2023-09-07T08:13:25;6.45;;;4.35;;
52724;SDS011;38621;52.830;6.914;2023-09-07T08:15:50;5.30;;;4.30;;
52724;SDS011;38621;52.830;6.914;2023-09-07T08:18:16;5.18;;;3.80;;
52724;SDS011;38621;52.830;6.914;2023-09-07T08:20:42;5.00;;;3.85;;
52724;SDS011;38621;52.830;6.914;2023-09-07T08:23:08;5.03;;;3.47;;
52724;SDS011;38621;52.830;6.914;2023-09-07T08:25:35;5.22;;;3.97;;
52724;SDS011;38621;52.830;6.914;2023-09-07T08:28:01;4.32;;;3.45;;
52724;SDS011;38621;52.830;6.914;2023-09-07T08:30:30;6.35;;;3.60;;
52724;SDS011;38621;52.830;6.914;2023-09-07T08:32:56;4.07;;;3.60;;
52724;SDS011;38621;52.830;6.914;2023-09-07T08:35:22;4.28;;;3.47;;
52724;SDS011;38621;52.830;6.914;2023-09-07T08:37:52;6.32;;;3.20;;
52724;SDS011;38621;52.830;6.914;2023-09-07T08:40:19;5.00;;;3.45;;
52724;SDS011;38621;52.830;6.914;2023-09-07T08:42:46;3.90;;;3.05;;
52724;SDS011;38621;52.830;6.914;2023-09-07T08:45:13;4.93;;;3.38;;
52724;SDS011;38621;52.830;6.914;2023-09-07T08:47:43;3.85;;;3.28;;
52724;SDS011;38621;52.830;6.914;2023-09-07T08:50:11;6.03;;;3.50;;
52724;SDS011;38621;52.830;6.914;2023-09-07T08:52:38;4.43;;;3.40;;
52724;SDS011;38621;52.830;6.914;2023-09-07T08:55:05;6.13;;;3.33;;
52724;SDS011;38621;52.830;6.914;2023-09-07T08:57:32;4.93;;;3.47;;
52724;SDS011;38621;52.830;6.914;2023-09-07T08:59:58;4.82;;;2.80;;
52724;SDS011;38621;52.830;6.914;2023-09-07T09:02:24;3.90;;;2.88;;
52724;SDS011;38621;52.830;6.914;2023-09-07T09:04:50;4.03;;;2.88;;
52724;SDS011;38621;52.830;6.914;2023-09-07T09:07:17;4.55;;;2.95;;
52724;SDS011;38621;52.830;6.914;2023-09-07T09:09:43;4.82;;;3.28;;
52724;SDS011;38621;52.830;6.914;2023-09-07T09:12:10;4.28;;;3.55;;
52724;SDS011;38621;52.830;6.914;2023-09-07T09:14:36;4.43;;;2.90;;
52724;SDS011;38621;52.830;6.914;2023-09-07T09:17:02;5.35;;;3.00;;
52724;SDS011;38621;52.830;6.914;2023-09-07T09:19:31;3.38;;;2.92;;
52724;SDS011;38621;52.830;6.914;2023-09-07T09:21:58;4.00;;;2.90;;
52724;SDS011;38621;52.830;6.914;2023-09-07T09:24:24;5.55;;;2.92;;
52724;SDS011;38621;52.830;6.914;2023-09-07T09:26:50;5.40;;;2.88;;
52724;SDS011;38621;52.830;6.914;2023-09-07T09:29:15;4.97;;;3.03;;
52724;SDS011;38621;52.830;6.914;2023-09-07T09:31:41;3.60;;;2.65;;
52724;SDS011;38621;52.830;6.914;2023-09-07T09:34:08;4.70;;;3.25;;
52724;SDS011;38621;52.830;6.914;2023-09-07T09:36:34;4.25;;;3.58;;
52724;SDS011;38621;52.830;6.914;2023-09-07T09:39:01;4.45;;;3.05;;
52724;SDS011;38621;52.830;6.914;2023-09-07T09:41:29;3.83;;;2.95;;
52724;SDS011;38621;52.830;6.914;2023-09-07T09:43:57;5.72;;;3.08;;
52724;SDS011;38621;52.830;6.914;2023-09-07T09:46:24;6.22;;;3.08;;
52724;SDS011;38621;52.830;6.914;2023-09-07T09:48:51;4.07;;;2.70;;
52724;SDS011;38621;52.830;6.914;2023-09-07T09:51:18;5.07;;;3.35;;
52724;SDS011;38621;52.830;6.914;2023-09-07T09:53:44;3.67;;;3.00;;
52724;SDS011;38621;52.830;6.914;2023-09-07T09:56:10;3.60;;;2.90;;
52724;SDS011;38621;52.830;6.914;2023-09-07T09:58:36;4.32;;;3.15;;
52724;SDS011;38621;52.830;6.914;2023-09-07T10:01:02;4.32;;;3.30;;
52724;SDS011;38621;52.830;6.914;2023-09-07T10:04:04;4.57;;;3.47;;
52724;SDS011;38621;52.830;6.914;2023-09-07T10:06:28;4.70;;;2.85;;
52724;SDS011;38621;52.830;6.914;2023-09-07T10:08:57;3.90;;;3.25;;
52724;SDS011;38621;52.830;6.914;2023-09-07T10:11:31;4.43;;;2.72;;
52724;SDS011;38621;52.830;6.914;2023-09-07T10:13:59;4.32;;;3.08;;
52724;SDS011;38621;52.830;6.914;2023-09-07T10:16:28;6.22;;;2.70;;
52724;SDS011;38621;52.830;6.914;2023-09-07T10:18:54;3.95;;;2.83;;
52724;SDS011;38621;52.830;6.914;2023-09-07T10:21:20;4.32;;;2.83;;
52724;SDS011;38621;52.830;6.914;2023-09-07T10:23:50;5.32;;;3.08;;
52724;SDS011;38621;52.830;6.914;2023-09-07T10:26:18;5.10;;;2.63;;
52724;SDS011;38621;52.830;6.914;2023-09-07T10:28:58;5.53;;;2.80;;
52724;SDS011;38621;52.830;6.914;2023-09-07T10:31:25;3.70;;;2.65;;
52724;SDS011;38621;52.830;6.914;2023-09-07T10:33:51;3.80;;;2.45;;
52724;SDS011;38621;52.830;6.914;2023-09-07T10:36:24;4.95;;;2.38;;
52724;SDS011;38621;52.830;6.914;2023-09-07T10:38:51;3.75;;;2.78;;
52724;SDS011;38621;52.830;6.914;2023-09-07T10:41:21;4.07;;;2.85;;
52724;SDS011;38621;52.830;6.914;2023-09-07T10:43:47;4.60;;;3.15;;
52724;SDS011;38621;52.830;6.914;2023-09-07T10:46:14;3.30;;;2.78;;
52724;SDS011;38621;52.830;6.914;2023-09-07T10:48:44;3.40;;;2.92;;
52724;SDS011;38621;52.830;6.914;2023-09-07T10:51:10;3.10;;;2.65;;
52724;SDS011;38621;52.830;6.914;2023-09-07T10:53:36;4.80;;;3.00;;
52724;SDS011;38621;52.830;6.914;2023-09-07T10:56:02;3.38;;;2.25;;
52724;SDS011;38621;52.830;6.914;2023-09-07T10:58:30;3.65;;;2.78;;
52724;SDS011;38621;52.830;6.914;2023-09-07T11:00:57;4.90;;;2.40;;
52724;SDS011;38621;52.830;6.914;2023-09-07T11:03:24;4.05;;;2.83;;
52724;SDS011;38621;52.830;6.914;2023-09-07T11:06:14;3.28;;;2.47;;
52724;SDS011;38621;52.830;6.914;2023-09-07T11:08:44;4.55;;;2.70;;
52724;SDS011;38621;52.830;6.914;2023-09-07T11:11:13;5.45;;;2.50;;
52724;SDS011;38621;52.830;6.914;2023-09-07T11:13:39;3.20;;;2.25;;
52724;SDS011;38621;52.830;6.914;2023-09-07T11:16:06;3.60;;;2.50;;
52724;SDS011;38621;52.830;6.914;2023-09-07T11:18:34;3.40;;;2.72;;
52724;SDS011;38621;52.830;6.914;2023-09-07T11:21:02;4.40;;;2.78;;
52724;SDS011;38621;52.830;6.914;2023-09-07T11:23:32;3.60;;;2.50;;
52724;SDS011;38621;52.830;6.914;2023-09-07T11:26:07;6.70;;;2.72;;
52724;SDS011;38621;52.830;6.914;2023-09-07T11:28:33;4.35;;;2.53;;
52724;SDS011;38621;52.830;6.914;2023-09-07T11:30:59;3.75;;;2.60;;
52724;SDS011;38621;52.830;6.914;2023-09-07T11:33:25;4.05;;;2.97;;
52724;SDS011;38621;52.830;6.914;2023-09-07T11:35:52;2.97;;;2.50;;
52724;SDS011;38621;52.830;6.914;2023-09-07T11:38:21;3.08;;;2.60;;
52724;SDS011;38621;52.830;6.914;2023-09-07T11:40:47;4.65;;;3.13;;
52724;SDS011;38621;52.830;6.914;2023-09-07T11:43:16;3.88;;;2.55;;
52724;SDS011;38621;52.830;6.914;2023-09-07T11:45:45;4.22;;;2.80;;
52724;SDS011;38621;52.830;6.914;2023-09-07T11:48:12;4.13;;;3.08;;
52724;SDS011;38621;52.830;6.914;2023-09-07T11:50:38;3.60;;;2.80;;
52724;SDS011;38621;52.830;6.914;2023-09-07T11:53:05;3.88;;;3.25;;
52724;SDS011;38621;52.830;6.914;2023-09-07T11:55:32;4.40;;;3.15;;
52724;SDS011;38621;52.830;6.914;2023-09-07T11:57:58;5.28;;;3.00;;
52724;SDS011;38621;52.830;6.914;2023-09-07T12:00:24;4.63;;;2.78;;
52724;SDS011;38621;52.830;6.914;2023-09-07T12:02:49;4.57;;;2.90;;
52724;SDS011;38621;52.830;6.914;2023-09-07T12:05:15;3.88;;;2.92;;
52724;SDS011;38621;52.830;6.914;2023-09-07T12:07:43;4.05;;;3.00;;
52724;SDS011;38621;52.830;6.914;2023-09-07T12:10:08;5.32;;;2.90;;
52724;SDS011;38621;52.830;6.914;2023-09-07T12:12:36;4.07;;;3.00;;
52724;SDS011;38621;52.830;6.914;2023-09-07T12:15:02;3.08;;;2.38;;
52724;SDS011;38621;52.830;6.914;2023-09-07T12:17:29;4.43;;;2.80;;
52724;SDS011;38621;52.830;6.914;2023-09-07T12:19:55;3.50;;;2.90;;
52724;SDS011;38621;52.830;6.914;2023-09-07T12:22:21;4.82;;;3.10;;
52724;SDS011;38621;52.830;6.914;2023-09-07T12:24:47;3.33;;;2.75;;
52724;SDS011;38621;52.830;6.914;2023-09-07T12:27:12;4.68;;;3.00;;
52724;SDS011;38621;52.830;6.914;2023-09-07T12:29:38;4.40;;;2.75;;
52724;SDS011;38621;52.830;6.914;2023-09-07T12:32:04;3.55;;;2.92;;
52724;SDS011;38621;52.830;6.914;2023-09-07T12:34:30;3.33;;;2.72;;
52724;SDS011;38621;52.830;6.914;2023-09-07T12:36:56;4.85;;;2.90;;
52724;SDS011;38621;52.830;6.914;2023-09-07T12:39:22;3.38;;;2.78;;
52724;SDS011;38621;52.830;6.914;2023-09-07T12:41:47;3.58;;;2.95;;
52724;SDS011;38621;52.830;6.914;2023-09-07T12:44:13;3.10;;;2.55;;
52724;SDS011;38621;52.830;6.914;2023-09-07T12:46:39;3.70;;;2.92;;
52724;SDS011;38621;52.830;6.914;2023-09-07T12:49:04;4.07;;;2.90;;
52724;SDS011;38621;52.830;6.914;2023-09-07T12:51:31;3.30;;;2.58;;
52724;SDS011;38621;52.830;6.914;2023-09-07T12:53:56;4.47;;;3.30;;
52724;SDS011;38621;52.830;6.914;2023-09-07T12:56:22;3.65;;;2.85;;
52724;SDS011;38621;52.830;6.914;2023-09-07T12:58:48;4.78;;;3.10;;
52724;SDS011;38621;52.830;6.914;2023-09-07T13:01:14;3.58;;;2.80;;
52724;SDS011;38621;52.830;6.914;2023-09-07T13:03:41;4.75;;;3.10;;
52724;SDS011;38621;52.830;6.914;2023-09-07T13:06:07;3.92;;;3.10;;
52724;SDS011;38621;52.830;6.914;2023-09-07T13:08:33;3.92;;;3.05;;
52724;SDS011;38621;52.830;6.914;2023-09-07T13:10:59;5.47;;;3.00;;
52724;SDS011;38621;52.830;6.914;2023-09-07T13:13:25;5.05;;;3.00;;
52724;SDS011;38621;52.830;6.914;2023-09-07T13:15:54;3.90;;;2.88;;
52724;SDS011;38621;52.830;6.914;2023-09-07T13:18:20;2.97;;;2.47;;
52724;SDS011;38621;52.830;6.914;2023-09-07T13:20:46;4.47;;;2.78;;
52724;SDS011;38621;52.830;6.914;2023-09-07T13:23:14;3.75;;;2.80;;
52724;SDS011;38621;52.830;6.914;2023-09-07T13:25:41;3.95;;;2.50;;
52724;SDS011;38621;52.830;6.914;2023-09-07T13:28:06;3.80;;;2.75;;
52724;SDS011;38621;52.830;6.914;2023-09-07T13:30:32;3.53;;;2.83;;
52724;SDS011;38621;52.830;6.914;2023-09-07T13:32:58;4.97;;;2.55;;
52724;SDS011;38621;52.830;6.914;2023-09-07T13:35:25;4.40;;;2.47;;
52724;SDS011;38621;52.830;6.914;2023-09-07T13:37:51;3.75;;;2.63;;
52724;SDS011;38621;52.830;6.914;2023-09-07T13:40:17;4.00;;;2.65;;
52724;SDS011;38621;52.830;6.914;2023-09-07T13:42:44;3.83;;;2.70;;
52724;SDS011;38621;52.830;6.914;2023-09-07T13:45:10;3.58;;;2.65;;
52724;SDS011;38621;52.830;6.914;2023-09-07T13:47:38;3.85;;;2.75;;
52724;SDS011;38621;52.830;6.914;2023-09-07T13:50:04;5.57;;;2.95;;
52724;SDS011;38621;52.830;6.914;2023-09-07T13:52:30;4.10;;;2.90;;
52724;SDS011;38621;52.830;6.914;2023-09-07T13:54:55;4.45;;;3.20;;
52724;SDS011;38621;52.830;6.914;2023-09-07T13:57:21;4.15;;;3.20;;
52724;SDS011;38621;52.830;6.914;2023-09-07T13:59:47;3.65;;;2.70;;
52724;SDS011;38621;52.830;6.914;2023-09-07T14:02:13;4.60;;;2.58;;
52724;SDS011;38621;52.830;6.914;2023-09-07T14:04:38;4.18;;;2.58;;
52724;SDS011;38621;52.830;6.914;2023-09-07T14:07:04;3.92;;;2.53;;
52724;SDS011;38621;52.830;6.914;2023-09-07T14:09:29;3.75;;;2.63;;
52724;SDS011;38621;52.830;6.914;2023-09-07T14:11:55;3.33;;;2.63;;
52724;SDS011;38621;52.830;6.914;2023-09-07T14:14:21;4.22;;;2.80;;
52724;SDS011;38621;52.830;6.914;2023-09-07T14:16:47;3.72;;;2.55;;
52724;SDS011;38621;52.830;6.914;2023-09-07T14:19:14;4.10;;;2.80;;
52724;SDS011;38621;52.830;6.914;2023-09-07T14:21:40;4.18;;;2.60;;
52724;SDS011;38621;52.830;6.914;2023-09-07T14:24:06;3.80;;;2.63;;
52724;SDS011;38621;52.830;6.914;2023-09-07T14:26:31;4.82;;;2.70;;
52724;SDS011;38621;52.830;6.914;2023-09-07T14:28:57;4.47;;;2.63;;
52724;SDS011;38621;52.830;6.914;2023-09-07T14:31:23;4.28;;;2.60;;
52724;SDS011;38621;52.830;6.914;2023-09-07T14:33:48;4.00;;;2.58;;
52724;SDS011;38621;52.830;6.914;2023-09-07T14:36:14;3.95;;;2.47;;
52724;SDS011;38621;52.830;6.914;2023-09-07T14:38:41;3.20;;;2.70;;
52724;SDS011;38621;52.830;6.914;2023-09-07T14:41:09;4.75;;;3.05;;
52724;SDS011;38621;52.830;6.914;2023-09-07T14:43:47;5.03;;;2.78;;